| time (UTC) | temp F | wind direction | speed knots | gust knots | rain 1hr in | rain 24hr in | rain mn in | humidity % | barometer mb |
| 20260509012927 | 59 | 0.0 | 0.0 | 0.01 | 0.01 | 0.01 | 1 | 1034.5 | |
| 20260509011826 | 59 | 32 | 1.7 | 2.6 | 0.01 | 0.01 | 0.01 | 1 | 1034.5 |
| 20260509010913 | 60 | 225 | 0.0 | 0.9 | 0.00 | 0.00 | 0.00 | 1 | 1034.5 |
| 20260509005821 | 60 | 0.0 | 0.0 | 0.00 | 0.00 | 0.00 | 1 | 1034.3 | |
| 20260509004849 | 60 | 0.0 | 0.9 | 0.00 | 0.00 | 0.00 | 5 | 1034.0 | |
| 20260509003847 | 61 | 23 | 0.0 | 2.6 | 0.00 | 0.00 | 0.00 | 17 | 1033.9 |
| 20260509002905 | 61 | 0.0 | 0.0 | 0.00 | 0.00 | 0.00 | 30 | 1033.9 | |
| 20260509001843 | 61 | 338 | 0.9 | 0.9 | 0.00 | 0.00 | 0.00 | 37 | 1033.9 |
| 20260509000841 | 62 | 0.0 | 0.0 | 0.00 | 0.00 | 0.00 | 43 | 1033.9 | |
| 20260508235839 | 62 | 0.0 | 0.0 | 0.00 | 0.00 | 0.00 | 48 | 1033.9 | |
| 20260508234838 | 63 | 0.0 | 0.0 | 0.00 | 0.00 | 0.00 | 50 | 1033.9 | |
| 20260508233837 | 63 | 0.0 | 0.0 | 0.00 | 0.00 | 0.00 | 52 | 1033.9 | |
| 20260508233004 | 64 | 0.0 | 0.0 | 0.00 | 0.00 | 0.00 | 52 | 1033.9 | |
| 20260508231832 | 65 | 283 | 1.7 | 2.6 | 0.00 | 0.00 | 0.00 | 51 | 1033.9 |
| 20260508230830 | 66 | 227 | 1.7 | 4.3 | 0.00 | 0.00 | 0.00 | 48 | 1033.9 |
| 20260508225828 | 67 | 234 | 1.7 | 4.3 | 0.00 | 0.00 | 0.00 | 47 | 1033.9 |
| 20260508224827 | 67 | 215 | 3.5 | 6.1 | 0.00 | 0.00 | 0.00 | 46 | 1033.9 |
| 20260508223824 | 67 | 214 | 4.3 | 6.1 | 0.00 | 0.00 | 0.00 | 45 | 1033.5 |
| 20260508222822 | 68 | 209 | 1.7 | 3.5 | 0.00 | 0.00 | 0.00 | 45 | 1033.5 |
| 20260508221850 | 68 | 215 | 2.6 | 4.3 | 0.00 | 0.00 | 0.00 | 44 | 1033.5 |
| 20260508220908 | 67 | 225 | 2.6 | 3.5 | 0.00 | 0.00 | 0.00 | 44 | 1033.5 |
| 20260508215907 | 67 | 236 | 3.5 | 4.3 | 0.00 | 0.00 | 0.00 | 45 | 1033.5 |
| 20260508214905 | 68 | 221 | 2.6 | 6.1 | 0.00 | 0.00 | 0.00 | 44 | 1033.5 |
| 20260508213842 | 68 | 213 | 3.5 | 4.3 | 0.00 | 0.00 | 0.00 | 43 | 1033.5 |
| 20260508212910 | 68 | 224 | 4.3 | 7.0 | 0.00 | 0.00 | 0.00 | 43 | 1033.8 |
| 20260508211839 | 69 | 237 | 3.5 | 7.0 | 0.00 | 0.00 | 0.00 | 43 | 1033.9 |
| 20260508210836 | 68 | 208 | 1.7 | 3.5 | 0.00 | 0.00 | 0.00 | 43 | 1033.9 |
| 20260508205834 | 68 | 210 | 3.5 | 6.1 | 0.00 | 0.00 | 0.00 | 44 | 1034.2 |
| 20260508204852 | 68 | 212 | 3.5 | 4.3 | 0.00 | 0.00 | 0.00 | 43 | 1034.2 |
| 20260508203830 | 68 | 209 | 3.5 | 6.1 | 0.00 | 0.00 | 0.00 | 43 | 1034.2 |
| 20260508202828 | 69 | 292 | 1.7 | 3.5 | 0.00 | 0.00 | 0.00 | 43 | 1034.5 |
| 20260508201847 | 69 | 214 | 3.5 | 9.6 | 0.00 | 0.00 | 0.00 | 41 | 1034.5 |
| 20260508200825 | 69 | 228 | 3.5 | 8.7 | 0.00 | 0.00 | 0.00 | 42 | 1034.5 |
| 20260508195934 | 69 | 237 | 3.5 | 7.0 | 0.00 | 0.00 | 0.00 | 42 | 1034.5 |
| 20260508194852 | 69 | 221 | 1.7 | 4.3 | 0.00 | 0.00 | 0.00 | 42 | 1034.9 |
| 20260508193850 | 70 | 200 | 4.3 | 9.6 | 0.00 | 0.00 | 0.00 | 42 | 1034.9 |
| 20260508192818 | 71 | 249 | 3.5 | 8.7 | 0.00 | 0.00 | 0.00 | 42 | 1034.9 |
| 20260508191905 | 72 | 233 | 3.5 | 4.3 | 0.00 | 0.00 | 0.00 | 40 | 1034.9 |
| 20260508190843 | 73 | 252 | 6.1 | 12.2 | 0.00 | 0.00 | 0.00 | 39 | 1035.2 |
| 20260508185841 | 72 | 223 | 2.6 | 4.3 | 0.00 | 0.00 | 0.00 | 40 | 1035.2 |
| 20260508184839 | 73 | 227 | 4.3 | 8.7 | 0.00 | 0.00 | 0.00 | 39 | 1035.6 |
| 20260508183858 | 73 | 259 | 4.3 | 8.7 | 0.00 | 0.00 | 0.00 | 41 | 1035.6 |
| 20260508182836 | 72 | 225 | 3.5 | 7.0 | 0.00 | 0.00 | 0.00 | 42 | 1035.9 |
| 20260508181844 | 71 | 223 | 6.1 | 12.2 | 0.00 | 0.00 | 0.00 | 41 | 1035.9 |
| 20260508180831 | 72 | 253 | 2.6 | 6.1 | 0.00 | 0.00 | 0.00 | 42 | 1036.2 |
| 20260508175839 | 72 | 203 | 6.1 | 13.0 | 0.00 | 0.00 | 0.00 | 42 | 1036.2 |
| 20260508174827 | 71 | 229 | 1.7 | 3.5 | 0.00 | 0.00 | 0.00 | 43 | 1036.2 |
| 20260508173835 | 70 | 269 | 5.2 | 9.6 | 0.00 | 0.00 | 0.00 | 44 | 1036.7 |
| 20260508172854 | 70 | 206 | 4.3 | 6.1 | 0.00 | 0.00 | 0.00 | 44 | 1037.0 |
| 20260508171821 | 70 | 207 | 3.5 | 6.1 | 0.00 | 0.00 | 0.00 | 44 | 1037.0 |
| 20260508170819 | 71 | 200 | 4.3 | 8.7 | 0.00 | 0.00 | 0.00 | 42 | 1037.0 |
| 20260508165929 | 71 | 203 | 6.1 | 13.0 | 0.00 | 0.00 | 0.00 | 45 | 1037.3 |
| 20260508164845 | 71 | 191 | 7.0 | 9.6 | 0.00 | 0.00 | 0.00 | 44 | 1037.7 |
| 20260508163844 | 70 | 208 | 7.0 | 12.2 | 0.00 | 0.00 | 0.00 | 45 | 1037.7 |
| 20260508162841 | 70 | 210 | 6.1 | 9.6 | 0.00 | 0.00 | 0.00 | 45 | 1037.7 |
| 20260508161850 | 69 | 207 | 4.3 | 9.6 | 0.00 | 0.00 | 0.00 | 46 | 1037.8 |
| 20260508160838 | 69 | 240 | 3.5 | 8.7 | 0.00 | 0.00 | 0.00 | 45 | 1038.0 |
| 20260508155836 | 69 | 211 | 7.0 | 13.0 | 0.00 | 0.00 | 0.00 | 46 | 1038.0 |
| 20260508154855 | 69 | 248 | 1.7 | 4.3 | 0.00 | 0.00 | 0.00 | 46 | 1038.4 |
| 20260508153833 | 68 | 219 | 4.3 | 10.4 | 0.00 | 0.00 | 0.00 | 46 | 1038.4 |
| 20260508152840 | 68 | 214 | 5.2 | 8.7 | 0.00 | 0.00 | 0.00 | 47 | 1038.5 |
| 20260508151828 | 68 | 207 | 6.1 | 12.2 | 0.00 | 0.00 | 0.00 | 47 | 1038.7 |
| 20260508150826 | 68 | 216 | 3.5 | 7.0 | 0.00 | 0.00 | 0.00 | 48 | 1038.7 |
| 20260508145825 | 67 | 216 | 3.5 | 12.2 | 0.00 | 0.00 | 0.00 | 47 | 1038.7 |
| 20260508144823 | 66 | 211 | 2.6 | 7.0 | 0.00 | 0.00 | 0.00 | 49 | 1038.7 |
| 20260508143851 | 65 | 253 | 1.7 | 4.3 | 0.00 | 0.00 | 0.00 | 49 | 1038.7 |
| 20260508142848 | 65 | 211 | 3.5 | 8.7 | 0.00 | 0.00 | 0.00 | 49 | 1039.0 |
| 20260508141917 | 64 | 207 | 5.2 | 9.6 | 0.00 | 0.00 | 0.00 | 50 | 1039.0 |
| 20260508140844 | 63 | 232 | 3.5 | 7.0 | 0.00 | 0.00 | 0.00 | 51 | 1039.2 |
| 20260508135842 | 62 | 214 | 3.5 | 8.7 | 0.00 | 0.00 | 0.00 | 51 | 1039.4 |
| 20260508134841 | 61 | 242 | 3.5 | 6.1 | 0.00 | 0.00 | 0.00 | 46 | 1039.4 |
| 20260508133838 | 59 | 216 | 5.2 | 10.4 | 0.00 | 0.00 | 0.00 | 39 | 1039.4 |
| 20260508132836 | 58 | 225 | 2.6 | 4.3 | 0.00 | 0.00 | 0.00 | 34 | 1039.4 |
| 20260508131834 | 57 | 241 | 2.6 | 6.1 | 0.00 | 0.00 | 0.00 | 30 | 1039.4 |
| 20260508130832 | 57 | 225 | 2.6 | 4.3 | 0.00 | 0.00 | 0.00 | 26 | 1039.4 |
| 20260508125831 | 56 | 209 | 4.3 | 6.1 | 0.00 | 0.00 | 0.00 | 18 | 1039.4 |
| 20260508124828 | 55 | 212 | 2.6 | 4.3 | 0.00 | 0.00 | 0.00 | 1 | 1039.2 |
| 20260508123826 | 53 | 221 | 1.7 | 4.3 | 0.00 | 0.00 | 0.00 | 1 | 1039.2 |
| 20260508122824 | 51 | 216 | 2.6 | 4.3 | 0.00 | 0.00 | 0.00 | 1 | 1039.0 |
| 20260508121852 | 49 | 214 | 2.6 | 4.3 | 0.00 | 0.00 | 0.00 | 1 | 1039.0 |
| 20260508120820 | 47 | 237 | 1.7 | 3.5 | 0.00 | 0.00 | 0.00 | 1 | 1039.2 |
| 20260508115819 | 46 | 0.0 | 0.0 | 0.00 | 0.00 | 0.00 | 1 | 1039.0 | |
| 20260508114916 | 46 | 225 | 0.0 | 0.9 | 0.00 | 0.00 | 0.00 | 1 | 1039.0 |
| 20260508113844 | 46 | 0.0 | 0.0 | 0.00 | 0.00 | 0.00 | 1 | 1038.8 | |
| 20260508112953 | 45 | 0.0 | 0.0 | 0.00 | 0.00 | 0.00 | 1 | 1038.7 | |
| 20260508111910 | 45 | 0.0 | 0.0 | 0.00 | 0.00 | 0.00 | 1 | 1038.7 | |
| 20260508110849 | 45 | 0.0 | 0.0 | 0.00 | 0.00 | 0.00 | 1 | 1038.7 | |
| 20260508110006 | 45 | 0.0 | 0.0 | 0.00 | 0.00 | 0.00 | 1 | 1038.5 | |
| 20260508104955 | 45 | 0.0 | 0.0 | 0.00 | 0.00 | 0.00 | 1 | 1038.5 | |
| 20260508103832 | 44 | 225 | 0.0 | 0.9 | 0.00 | 0.00 | 0.00 | 1 | 1038.6 |
| 20260508103000 | 44 | 0.0 | 0.0 | 0.00 | 0.00 | 0.00 | 1 | 1038.7 | |
| 20260508101838 | 44 | 0.0 | 0.0 | 0.00 | 0.00 | 0.00 | 1 | 1038.5 | |
| 20260508100948 | 44 | 0.0 | 0.0 | 0.00 | 0.00 | 0.00 | 1 | 1038.4 | |
| 20260508095924 | 43 | 0.0 | 0.0 | 0.00 | 0.00 | 0.00 | 1 | 1038.4 | |
| 20260508094852 | 43 | 252 | 0.9 | 2.6 | 0.00 | 0.00 | 0.00 | 1 | 1038.4 |
| 20260508093920 | 42 | 0.0 | 0.0 | 0.00 | 0.00 | 0.00 | 1 | 1038.7 | |
| 20260508092918 | 42 | 0.0 | 0.0 | 0.00 | 0.00 | 0.00 | 1 | 1038.7 | |
| 20260508091916 | 42 | 0.0 | 0.0 | 0.00 | 0.00 | 0.00 | 1 | 1038.5 | |
| 20260508090913 | 41 | 0.0 | 0.0 | 0.00 | 0.00 | 0.00 | 1 | 1038.7 | |
| 20260508085911 | 41 | 0.0 | 0.0 | 0.00 | 0.00 | 0.00 | 1 | 1038.7 | |
| 20260508084928 | 40 | 0.0 | 0.0 | 0.00 | 0.00 | 0.00 | 1 | 1038.4 | |
| 20260508083856 | 40 | 0.0 | 0.0 | 0.00 | 0.00 | 0.00 | 1 | 1038.4 | |
| 20260508082934 | 40 | 0.0 | 0.0 | 0.00 | 0.00 | 0.00 | 1 | 1038.4 | |
| 20260508081902 | 40 | 338 | 0.0 | 0.9 | 0.00 | 0.00 | 0.00 | 1 | 1038.4 |
| 20260508080930 | 40 | 0.0 | 0.0 | 0.00 | 0.00 | 0.00 | 1 | 1038.4 | |
| 20260508075928 | 40 | 315 | 0.0 | 0.9 | 0.00 | 0.00 | 0.00 | 1 | 1038.4 |
| 20260508074856 | 40 | 0.0 | 0.0 | 0.00 | 0.00 | 0.00 | 1 | 1038.4 | |
| 20260508073924 | 40 | 0.0 | 0.0 | 0.00 | 0.00 | 0.00 | 1 | 1038.4 | |
| 20260508072852 | 40 | 248 | 0.0 | 0.9 | 0.00 | 0.00 | 0.00 | 1 | 1038.4 |
| 20260508071920 | 40 | 0.0 | 0.0 | 0.00 | 0.00 | 0.00 | 1 | 1038.4 | |
| 20260508070918 | 41 | 0.0 | 0.0 | 0.00 | 0.00 | 0.00 | 1 | 1038.4 | |
| 20260508065917 | 41 | 0.0 | 0.0 | 0.00 | 0.00 | 0.00 | 1 | 1038.7 | |
| 20260508064956 | 41 | 0.0 | 0.0 | 0.00 | 0.00 | 0.00 | 1 | 1038.7 | |
| 20260508063922 | 41 | 0.0 | 0.0 | 0.00 | 0.00 | 0.00 | 1 | 1039.0 | |
| 20260508062910 | 41 | 0.0 | 0.0 | 0.00 | 0.00 | 0.00 | 1 | 1039.0 | |
| 20260508061958 | 41 | 0.0 | 0.0 | 0.00 | 0.00 | 0.00 | 1 | 1039.0 | |
| 20260508060936 | 41 | 0.0 | 0.0 | 0.00 | 0.00 | 0.00 | 1 | 1039.0 | |
| 20260508055904 | 41 | 0.0 | 0.0 | 0.00 | 0.00 | 0.00 | 1 | 1039.0 | |
| 20260508054933 | 42 | 0.0 | 0.0 | 0.00 | 0.00 | 0.00 | 1 | 1039.0 | |
| 20260508053830 | 42 | 0.0 | 0.0 | 0.00 | 0.00 | 0.00 | 1 | 1039.4 | |
| 20260508052927 | 42 | 0.0 | 0.0 | 0.00 | 0.00 | 0.00 | 1 | 1039.4 | |
| 20260508051827 | 42 | 0.0 | 0.0 | 0.00 | 0.00 | 0.00 | 1 | 1039.0 | |
| 20260508050824 | 42 | 0.0 | 0.0 | 0.00 | 0.00 | 0.00 | 1 | 1039.0 | |
| 20260508045821 | 42 | 0.0 | 0.0 | 0.00 | 0.00 | 0.00 | 1 | 1039.0 | |
| 20260508045010 | 42 | 0.0 | 0.0 | 0.00 | 0.00 | 0.00 | 1 | 1039.0 | |
| 20260508043918 | 42 | 0.0 | 0.0 | 0.00 | 0.00 | 0.00 | 1 | 1039.0 | |
| 20260508042927 | 42 | 0.0 | 0.0 | 0.00 | 0.00 | 0.00 | 1 | 1039.0 | |
| 20260508041914 | 42 | 0.0 | 0.0 | 0.00 | 0.00 | 0.00 | 1 | 1039.0 | |
| 20260508040912 | 43 | 0.0 | 0.0 | 0.00 | 0.00 | 0.00 | 1 | 1039.0 | |
| 20260508035940 | 43 | 0.0 | 0.0 | 0.00 | 0.00 | 0.00 | 1 | 1038.7 | |
| 20260508034908 | 43 | 0.0 | 0.0 | 0.00 | 0.00 | 0.00 | 1 | 1038.7 | |
| 20260508033836 | 43 | 0.0 | 0.0 | 0.00 | 0.00 | 0.00 | 1 | 1038.9 | |
| 20260508033035 | 43 | 0.0 | 0.0 | 0.00 | 0.00 | 0.00 | 3 | 1039.0 | |
| 20260508031833 | 43 | 248 | 0.9 | 0.9 | 0.00 | 0.00 | 0.00 | 10 | 1039.0 |
| 20260508031032 | 43 | 0.0 | 0.0 | 0.00 | 0.00 | 0.00 | 16 | 1038.7 | |
| 20260508025730 | 44 | 0.0 | 0.0 | 0.00 | 0.00 | 0.00 | 17 | 1038.7 | |
| 20260508024727 | 44 | 0.0 | 0.0 | 0.00 | 0.00 | 0.00 | 22 | 1039.0 | |
| 20260508023705 | 44 | 0.0 | 0.0 | 0.00 | 0.00 | 0.00 | 28 | 1039.0 | |
| 20260508022624 | 45 | 0.0 | 0.0 | 0.00 | 0.00 | 0.00 | 34 | 1039.0 | |
| 20260508021621 | 45 | 0.0 | 0.0 | 0.00 | 0.00 | 0.00 | 38 | 1039.0 | |
| 20260508020709 | 46 | 0.0 | 0.0 | 0.00 | 0.00 | 0.00 | 42 | 1038.7 | |
| 20260508015747 | 46 | 0.0 | 0.0 | 0.00 | 0.00 | 0.00 | 44 | 1038.7 | |
| 20260508014555 | 47 | 0.0 | 0.0 | 0.00 | 0.00 | 0.00 | 49 | 1038.7 |